createdAt,value
2019-03-19T00:01:11.391Z,13.30
2019-03-19T00:04:00.079Z,7.50
2019-03-19T00:06:48.741Z,15.00
2019-03-19T00:09:37.595Z,12.83
2019-03-19T00:12:25.519Z,6.70
2019-03-19T00:15:13.939Z,14.57
2019-03-19T00:18:02.423Z,17.73
2019-03-19T00:20:50.659Z,12.43
2019-03-19T00:23:38.919Z,15.27
2019-03-19T00:26:27.348Z,13.07
2019-03-19T00:29:15.161Z,16.60
2019-03-19T00:32:02.947Z,10.90
2019-03-19T00:34:50.391Z,8.83
2019-03-19T00:37:38.724Z,10.63
2019-03-19T00:40:26.745Z,11.33
2019-03-19T00:43:14.624Z,11.30
2019-03-19T00:46:03.077Z,18.13
2019-03-19T00:48:51.316Z,9.77
2019-03-19T00:51:39.835Z,15.13
2019-03-19T00:54:28.295Z,12.90
2019-03-19T00:57:16.295Z,14.43
2019-03-19T01:00:04.860Z,12.40
2019-03-19T01:02:52.983Z,13.10
2019-03-19T01:05:41.331Z,15.20
2019-03-19T01:08:29.947Z,10.47
2019-03-19T01:11:18.628Z,18.07
2019-03-19T01:14:06.694Z,13.70
2019-03-19T01:16:55.208Z,12.07
2019-03-19T01:19:43.500Z,20.43
2019-03-19T01:22:31.451Z,10.07
2019-03-19T01:25:19.643Z,11.67
2019-03-19T01:28:08.050Z,14.10
2019-03-19T01:30:56.600Z,19.00
2019-03-19T01:33:44.804Z,12.03
2019-03-19T01:36:33.863Z,13.13
2019-03-19T01:39:21.870Z,17.07
2019-03-19T01:42:09.938Z,20.70
2019-03-19T01:44:58.170Z,16.93
2019-03-19T01:47:46.731Z,18.33
2019-03-19T01:50:34.906Z,15.90
2019-03-19T01:53:22.342Z,17.50
2019-03-19T01:56:10.868Z,15.70
2019-03-19T01:58:58.606Z,19.27
2019-03-19T02:01:47.077Z,21.73
2019-03-19T02:04:35.407Z,11.60
2019-03-19T02:07:24.018Z,16.40
2019-03-19T02:10:12.575Z,18.20
2019-03-19T02:13:00.339Z,22.27
2019-03-19T02:15:49.183Z,16.80
2019-03-19T02:18:37.549Z,21.20
2019-03-19T02:21:25.909Z,16.63
2019-03-19T02:24:14.340Z,17.43
2019-03-19T02:27:03.283Z,21.53
2019-03-19T02:29:51.073Z,14.30
2019-03-19T02:32:39.816Z,18.33
2019-03-19T02:35:27.762Z,17.13
2019-03-19T02:38:15.763Z,17.50
2019-03-19T02:41:03.798Z,13.77
2019-03-19T02:43:52.241Z,13.83
2019-03-19T02:46:40.724Z,19.50
2019-03-19T02:49:28.251Z,16.50
2019-03-19T02:52:17.135Z,20.80
2019-03-19T02:55:06.086Z,15.70
2019-03-19T02:57:54.699Z,16.50
2019-03-19T03:00:42.963Z,13.60
2019-03-19T03:03:31.172Z,12.13
2019-03-19T03:06:19.543Z,14.53
2019-03-19T03:09:07.991Z,18.33
2019-03-19T03:11:56.312Z,15.93
2019-03-19T03:14:46.253Z,21.10
2019-03-19T03:17:34.147Z,21.10
2019-03-19T03:20:22.536Z,23.00
2019-03-19T03:23:10.823Z,24.70
2019-03-19T03:25:59.040Z,17.53
2019-03-19T03:28:47.404Z,17.70
2019-03-19T03:31:35.639Z,24.83
2019-03-19T03:34:23.681Z,15.83
2019-03-19T03:37:11.871Z,9.57
2019-03-19T03:40:00.221Z,16.63
2019-03-19T03:42:49.096Z,21.23
2019-03-19T03:45:37.573Z,23.50
2019-03-19T03:48:25.599Z,24.17
2019-03-19T03:51:13.476Z,13.47
2019-03-19T03:54:01.626Z,11.93
2019-03-19T03:57:01.272Z,15.33
2019-03-19T03:59:39.802Z,14.77
2019-03-19T04:02:28.179Z,14.90
2019-03-19T04:05:16.631Z,20.80
2019-03-19T04:08:05.217Z,22.20
2019-03-19T04:10:53.438Z,16.47
2019-03-19T04:13:41.747Z,19.83
2019-03-19T04:16:29.732Z,18.17
2019-03-19T04:19:18.012Z,22.03
2019-03-19T04:22:06.468Z,19.07
2019-03-19T04:24:54.910Z,20.03
2019-03-19T04:27:43.684Z,22.13
2019-03-19T04:30:32.255Z,16.63
2019-03-19T04:33:20.559Z,19.30
2019-03-19T04:36:08.580Z,16.33
2019-03-19T04:38:57.120Z,20.77
2019-03-19T04:41:44.994Z,19.90
2019-03-19T04:44:32.945Z,23.17
2019-03-19T04:47:20.975Z,18.97
2019-03-19T04:50:10.086Z,22.10
2019-03-19T04:52:58.491Z,19.50
2019-03-19T04:55:46.695Z,17.20
2019-03-19T04:58:34.643Z,16.73
2019-03-19T05:01:23.121Z,14.73
2019-03-19T05:04:10.979Z,18.77
2019-03-19T05:06:59.431Z,20.47
2019-03-19T05:09:47.790Z,17.73
2019-03-19T05:12:36.234Z,14.90
2019-03-19T05:15:24.967Z,20.13
2019-03-19T05:18:13.207Z,18.47
2019-03-19T05:21:01.571Z,18.60
2019-03-19T05:23:49.350Z,21.80
2019-03-19T05:26:37.655Z,20.60
2019-03-19T05:29:26.303Z,18.63
2019-03-19T05:32:14.514Z,19.93
2019-03-19T05:35:02.558Z,23.60
2019-03-19T05:37:50.436Z,22.47
2019-03-19T05:40:39.351Z,17.90
2019-03-19T05:43:27.738Z,19.33
2019-03-19T05:46:16.355Z,17.27
2019-03-19T05:49:04.483Z,18.23
2019-03-19T05:51:52.972Z,20.30
2019-03-19T05:54:41.227Z,16.50
2019-03-19T05:57:29.859Z,16.83
2019-03-19T06:00:19.556Z,23.13
2019-03-19T06:03:07.465Z,17.60
2019-03-19T06:05:56.266Z,20.70
2019-03-19T06:08:44.951Z,17.33
2019-03-19T06:11:32.904Z,14.33
2019-03-19T06:14:20.940Z,17.90
2019-03-19T06:17:08.784Z,21.17
2019-03-19T06:19:56.971Z,25.93
2019-03-19T06:22:44.851Z,20.13
2019-03-19T06:25:33.267Z,25.10
2019-03-19T06:28:21.779Z,34.07
2019-03-19T06:31:09.920Z,31.70
2019-03-19T06:33:58.432Z,33.53
2019-03-19T06:36:46.515Z,38.47
2019-03-19T06:39:35.092Z,32.60
2019-03-19T06:42:22.868Z,36.23
2019-03-19T06:45:12.540Z,27.87
2019-03-19T06:48:01.061Z,28.20
2019-03-19T06:50:49.552Z,30.73
2019-03-19T06:53:38.074Z,27.27
2019-03-19T06:56:26.360Z,30.27
2019-03-19T06:59:14.759Z,24.60
2019-03-19T07:02:02.747Z,24.43
2019-03-19T07:04:50.782Z,18.80
2019-03-19T07:07:39.039Z,28.60
2019-03-19T07:10:27.243Z,25.10
2019-03-19T07:13:15.346Z,24.17
2019-03-19T07:16:02.939Z,31.10
2019-03-19T07:18:51.319Z,23.97
2019-03-19T07:21:39.030Z,24.53
2019-03-19T07:24:27.632Z,24.53
2019-03-19T07:27:15.499Z,29.33
2019-03-19T07:30:05.087Z,31.00
2019-03-19T07:32:53.072Z,26.67
2019-03-19T07:35:41.633Z,23.53
2019-03-19T07:38:33.324Z,21.17
2019-03-19T07:41:19.724Z,24.20
2019-03-19T07:44:08.143Z,25.40
2019-03-19T07:46:56.268Z,21.80
2019-03-19T07:49:44.736Z,24.33
2019-03-19T07:52:32.693Z,23.17
2019-03-19T07:55:21.599Z,25.90
2019-03-19T07:58:09.923Z,30.73
2019-03-19T08:00:57.839Z,26.80
2019-03-19T08:03:45.579Z,18.97
2019-03-19T08:06:33.432Z,26.07
2019-03-19T08:09:21.872Z,22.20
2019-03-19T08:12:10.129Z,24.87
2019-03-19T08:14:58.584Z,29.73
2019-03-19T08:17:46.727Z,26.87
2019-03-19T08:20:35.056Z,23.10
2019-03-19T08:23:23.124Z,18.37
2019-03-19T08:26:11.508Z,23.30
2019-03-19T08:28:59.692Z,25.40
2019-03-19T08:31:47.588Z,20.43
2019-03-19T08:34:36.374Z,25.50
2019-03-19T08:37:23.920Z,26.57
2019-03-19T08:40:12.991Z,18.53
2019-03-19T08:43:01.537Z,25.13
2019-03-19T08:45:49.302Z,20.13
2019-03-19T08:48:37.992Z,20.17
2019-03-19T08:51:26.047Z,19.70
2019-03-19T08:54:13.975Z,19.47
2019-03-19T08:57:02.072Z,19.13
2019-03-19T08:59:51.092Z,21.67
2019-03-19T09:02:39.249Z,22.30
2019-03-19T09:05:28.288Z,15.43
2019-03-19T09:08:16.738Z,14.80
2019-03-19T09:11:05.728Z,16.63
2019-03-19T09:13:54.292Z,12.00
2019-03-19T09:16:42.831Z,20.83
2019-03-19T09:19:31.360Z,16.10
2019-03-19T09:22:20.025Z,15.47
2019-03-19T09:25:08.537Z,20.60
2019-03-19T09:27:56.971Z,14.30
2019-03-19T09:30:44.848Z,18.27
2019-03-19T09:33:33.344Z,16.03
2019-03-19T09:36:21.899Z,12.97
2019-03-19T09:39:09.761Z,13.90
2019-03-19T09:41:58.063Z,11.83
2019-03-19T09:44:46.559Z,14.90
2019-03-19T09:47:34.417Z,11.73
2019-03-19T09:50:22.873Z,11.17
2019-03-19T09:53:11.043Z,13.43
2019-03-19T09:55:59.681Z,14.90
2019-03-19T09:58:47.887Z,14.67
2019-03-19T10:01:36.553Z,10.47
2019-03-19T10:04:25.268Z,10.17
2019-03-19T10:07:13.687Z,13.40
2019-03-19T10:10:01.772Z,7.80
2019-03-19T10:12:49.859Z,9.57
2019-03-19T10:15:38.680Z,13.80
2019-03-19T10:18:27.118Z,8.53
2019-03-19T10:21:14.872Z,9.10
2019-03-19T10:24:02.863Z,11.30
2019-03-19T10:26:51.067Z,17.37
2019-03-19T10:29:38.855Z,9.07
2019-03-19T10:32:27.179Z,10.30
2019-03-19T10:35:15.852Z,7.60
2019-03-19T10:38:04.367Z,11.03
2019-03-19T10:40:52.678Z,10.47
2019-03-19T10:43:41.238Z,9.17
2019-03-19T10:46:28.739Z,12.63
2019-03-19T10:49:17.276Z,11.10
2019-03-19T10:52:05.543Z,7.70
2019-03-19T10:54:53.385Z,9.60
2019-03-19T10:57:41.399Z,11.93
2019-03-19T11:00:29.851Z,6.40
2019-03-19T11:03:18.288Z,4.03
2019-03-19T11:06:06.258Z,5.40
2019-03-19T11:08:54.986Z,14.17
2019-03-19T11:11:43.279Z,8.27
2019-03-19T11:14:30.874Z,5.67
2019-03-19T11:17:19.031Z,6.23
2019-03-19T11:20:07.557Z,6.67
2019-03-19T11:22:56.062Z,8.77
2019-03-19T11:25:54.127Z,8.63
2019-03-19T11:28:34.450Z,7.17
2019-03-19T11:31:22.783Z,9.10
2019-03-19T11:34:10.378Z,8.90
2019-03-19T11:36:58.938Z,8.00
2019-03-19T11:39:46.596Z,8.73
2019-03-19T11:42:35.071Z,10.60
2019-03-19T11:45:23.975Z,8.67
2019-03-19T11:48:12.046Z,7.20
2019-03-19T11:51:00.227Z,13.03
2019-03-19T11:53:48.342Z,9.27
2019-03-19T11:56:36.579Z,9.17
2019-03-19T11:59:24.950Z,7.83
2019-03-19T12:02:13.332Z,8.30
2019-03-19T12:05:01.189Z,7.37
2019-03-19T12:07:49.358Z,7.90
2019-03-19T12:10:36.979Z,11.57
2019-03-19T12:13:24.790Z,8.70
2019-03-19T12:16:13.556Z,11.68
2019-03-19T12:19:01.046Z,12.13
2019-03-19T12:21:49.399Z,7.28
2019-03-19T12:24:37.858Z,9.33
2019-03-19T12:27:26.040Z,12.05
2019-03-19T12:30:21.698Z,8.95
2019-03-19T12:33:03.597Z,6.17
2019-03-19T12:35:51.791Z,7.92
2019-03-19T12:38:40.137Z,8.68
2019-03-19T12:41:28.368Z,8.80
2019-03-19T12:44:16.777Z,7.72
2019-03-19T12:47:05.628Z,7.57
2019-03-19T12:49:54.112Z,5.87
2019-03-19T12:52:42.368Z,9.70
2019-03-19T12:55:30.452Z,7.87
2019-03-19T12:58:18.448Z,9.10
2019-03-19T13:01:06.287Z,9.33
2019-03-19T13:03:54.653Z,9.20
2019-03-19T13:06:43.028Z,7.87
2019-03-19T13:09:30.976Z,9.10
2019-03-19T13:12:18.984Z,7.70
2019-03-19T13:15:07.471Z,8.77
2019-03-19T13:17:56.097Z,9.30
2019-03-19T13:20:44.672Z,6.83
2019-03-19T13:23:33.145Z,10.43
2019-03-19T13:26:20.979Z,8.97
2019-03-19T13:29:09.112Z,7.50
2019-03-19T13:31:57.627Z,13.00
2019-03-19T13:34:45.912Z,9.90
2019-03-19T13:37:34.392Z,12.33
2019-03-19T13:40:22.448Z,8.43
2019-03-19T13:43:11.296Z,6.43
2019-03-19T13:45:59.736Z,7.67
2019-03-19T13:48:47.796Z,7.67
2019-03-19T13:51:36.049Z,10.33
2019-03-19T13:54:24.345Z,6.13
2019-03-19T13:57:13.005Z,11.23
2019-03-19T14:00:01.116Z,6.50
2019-03-19T14:02:48.887Z,6.43
2019-03-19T14:05:37.328Z,9.17
2019-03-19T14:08:26.243Z,12.13
2019-03-19T14:11:14.267Z,9.70
2019-03-19T14:14:03.107Z,8.47
2019-03-19T14:16:51.351Z,6.13
2019-03-19T14:19:39.468Z,7.53
2019-03-19T14:22:27.117Z,8.30
2019-03-19T14:25:15.394Z,9.63
2019-03-19T14:28:03.203Z,9.00
2019-03-19T14:30:51.467Z,12.30
2019-03-19T14:33:39.634Z,12.10
2019-03-19T14:36:27.704Z,6.80
2019-03-19T14:39:16.261Z,6.83
2019-03-19T14:42:04.547Z,15.13
2019-03-19T14:44:52.638Z,5.97
2019-03-19T14:47:40.208Z,10.50
2019-03-19T14:50:28.628Z,6.27
2019-03-19T14:53:16.404Z,9.73
2019-03-19T14:56:03.954Z,9.80
2019-03-19T14:58:52.511Z,8.87
2019-03-19T15:01:41.251Z,7.17
2019-03-19T15:04:29.699Z,6.87
2019-03-19T15:07:17.801Z,5.27
2019-03-19T15:10:08.576Z,8.00
2019-03-19T15:12:57.407Z,19.37
2019-03-19T15:15:45.564Z,9.77
2019-03-19T15:18:35.160Z,7.03
2019-03-19T15:21:23.540Z,7.57
2019-03-19T15:24:12.036Z,13.07
2019-03-19T15:27:00.345Z,8.57
2019-03-19T15:29:48.610Z,10.50
2019-03-19T15:32:37.167Z,12.23
2019-03-19T15:35:25.270Z,8.27
2019-03-19T15:38:13.484Z,6.70
2019-03-19T15:41:01.672Z,9.83
2019-03-19T15:43:49.904Z,7.20
2019-03-19T15:46:38.004Z,9.50
2019-03-19T15:49:26.196Z,16.03
2019-03-19T15:52:13.965Z,15.40
2019-03-19T15:55:02.083Z,12.53
2019-03-19T15:57:50.218Z,9.93
2019-03-19T16:00:38.305Z,15.03
2019-03-19T16:03:26.467Z,10.23
2019-03-19T16:06:14.605Z,8.80
2019-03-19T16:09:03.423Z,10.10
2019-03-19T16:11:51.863Z,25.43
2019-03-19T16:14:40.089Z,8.47
2019-03-19T16:17:28.271Z,5.40
2019-03-19T16:20:16.030Z,7.97
2019-03-19T16:23:04.421Z,8.93
2019-03-19T16:25:52.350Z,6.20
2019-03-19T16:28:40.795Z,8.23
2019-03-19T16:31:28.562Z,7.50
2019-03-19T16:34:16.614Z,7.10
2019-03-19T16:37:04.186Z,8.60
2019-03-19T16:39:52.340Z,8.63
2019-03-19T16:42:40.644Z,11.80
2019-03-19T16:45:29.248Z,7.73
2019-03-19T16:48:16.930Z,9.00
2019-03-19T16:51:04.758Z,9.90
2019-03-19T16:53:53.083Z,5.90
2019-03-19T16:56:40.695Z,8.00
2019-03-19T16:59:29.148Z,7.87
2019-03-19T17:02:17.434Z,11.30
2019-03-19T17:05:06.178Z,8.60
2019-03-19T17:07:53.837Z,8.73
2019-03-19T17:10:41.323Z,6.70
2019-03-19T17:13:29.517Z,9.57
2019-03-19T17:16:17.959Z,10.13
2019-03-19T17:19:06.254Z,6.97
2019-03-19T17:21:54.607Z,10.23
2019-03-19T17:24:42.807Z,8.50
2019-03-19T17:27:30.947Z,7.73
2019-03-19T17:30:20.722Z,8.03
2019-03-19T17:33:09.018Z,6.27
2019-03-19T17:35:57.324Z,5.60
2019-03-19T17:38:45.835Z,7.37
2019-03-19T17:41:33.423Z,9.67
2019-03-19T17:44:21.584Z,9.60
2019-03-19T17:47:10.166Z,7.63
2019-03-19T17:49:58.735Z,9.43
2019-03-19T17:52:46.805Z,9.23
2019-03-19T17:55:40.655Z,7.43
2019-03-19T17:58:28.646Z,6.77
2019-03-19T18:01:17.623Z,7.20
2019-03-19T18:04:06.959Z,9.17
2019-03-19T18:06:54.855Z,9.03
2019-03-19T18:09:43.030Z,7.50
2019-03-19T18:12:31.615Z,8.60
2019-03-19T18:15:20.018Z,8.63
2019-03-19T18:18:08.439Z,9.87
2019-03-19T18:20:56.704Z,10.00
2019-03-19T18:23:45.646Z,10.37
2019-03-19T18:26:33.911Z,10.70
2019-03-19T18:29:22.063Z,14.37
2019-03-19T18:32:09.588Z,13.73
2019-03-19T18:34:58.039Z,8.67
2019-03-19T18:37:46.630Z,11.60
2019-03-19T18:40:35.203Z,11.00
2019-03-19T18:43:23.150Z,8.60
2019-03-19T18:46:11.503Z,9.47
2019-03-19T18:48:59.335Z,8.13
2019-03-19T18:51:47.796Z,8.30
2019-03-19T18:54:36.039Z,6.33
2019-03-19T18:57:24.206Z,10.80
2019-03-19T19:00:13.842Z,8.83
2019-03-19T19:03:01.911Z,6.10
2019-03-19T19:05:50.187Z,9.57
2019-03-19T19:08:38.611Z,10.90
2019-03-19T19:11:27.267Z,9.80
2019-03-19T19:14:15.413Z,9.27
2019-03-19T19:17:03.929Z,11.40
2019-03-19T19:19:52.347Z,11.43
2019-03-19T19:22:40.420Z,10.37
2019-03-19T19:25:28.605Z,12.17
2019-03-19T19:28:16.356Z,10.27
2019-03-19T19:31:04.327Z,9.33
2019-03-19T19:33:51.869Z,10.13
2019-03-19T19:36:40.315Z,12.87
2019-03-19T19:39:29.056Z,11.40
2019-03-19T19:42:17.376Z,16.10
2019-03-19T19:45:05.931Z,14.40
2019-03-19T19:47:54.293Z,12.70
2019-03-19T19:50:42.041Z,11.50
2019-03-19T19:53:30.395Z,14.23
2019-03-19T19:56:18.303Z,11.57
2019-03-19T19:59:06.091Z,11.63
2019-03-19T20:01:54.634Z,12.67
2019-03-19T20:04:42.729Z,17.60
2019-03-19T20:07:31.515Z,15.47
2019-03-19T20:10:19.821Z,11.27
2019-03-19T20:13:08.052Z,12.37
2019-03-19T20:15:55.856Z,12.07
2019-03-19T20:18:44.176Z,11.90
2019-03-19T20:21:32.355Z,11.23
2019-03-19T20:24:19.841Z,15.93
2019-03-19T20:27:08.054Z,15.00
2019-03-19T20:29:56.129Z,16.57
2019-03-19T20:32:43.623Z,11.20
2019-03-19T20:35:31.622Z,14.10
2019-03-19T20:38:20.350Z,13.60
2019-03-19T20:41:08.807Z,10.93
2019-03-19T20:43:57.487Z,11.53
2019-03-19T20:46:46.203Z,14.50
2019-03-19T20:49:34.699Z,10.70
2019-03-19T20:52:23.431Z,15.67
2019-03-19T20:55:11.912Z,13.17
2019-03-19T20:57:59.976Z,17.83
2019-03-19T21:00:48.171Z,16.77
2019-03-19T21:03:37.178Z,16.37
2019-03-19T21:06:25.778Z,20.77
2019-03-19T21:09:14.411Z,21.20
2019-03-19T21:12:02.419Z,26.03
2019-03-19T21:14:50.143Z,19.90
2019-03-19T21:17:38.642Z,21.60
2019-03-19T21:20:27.042Z,19.07
2019-03-19T21:23:15.810Z,18.53
2019-03-19T21:26:04.157Z,24.03
2019-03-19T21:28:52.235Z,18.93
2019-03-19T21:31:40.935Z,22.13
2019-03-19T21:34:29.527Z,21.80
2019-03-19T21:37:17.630Z,20.60
2019-03-19T21:40:07.069Z,22.13
2019-03-19T21:42:55.629Z,19.33
2019-03-19T21:45:43.214Z,26.80
2019-03-19T21:48:30.719Z,23.43
2019-03-19T21:51:18.707Z,26.17
2019-03-19T21:54:06.880Z,21.53
2019-03-19T21:56:55.043Z,25.60
2019-03-19T21:59:43.788Z,22.33
2019-03-19T22:02:31.786Z,29.63
2019-03-19T22:05:20.239Z,28.37
2019-03-19T22:08:08.964Z,22.83
2019-03-19T22:10:57.088Z,16.20
2019-03-19T22:13:44.936Z,24.83
2019-03-19T22:16:33.582Z,24.80
2019-03-19T22:19:21.875Z,22.53
2019-03-19T22:22:10.449Z,19.07
2019-03-19T22:24:58.892Z,18.93
2019-03-19T22:27:47.475Z,15.63
2019-03-19T22:30:35.733Z,18.23
2019-03-19T22:33:23.932Z,15.70
2019-03-19T22:36:12.512Z,18.33
2019-03-19T22:39:00.764Z,16.60
2019-03-19T22:41:48.307Z,21.77
2019-03-19T22:44:36.583Z,15.50
2019-03-19T22:47:24.691Z,19.43
2019-03-19T22:50:13.683Z,16.47
2019-03-19T22:53:01.968Z,15.70
2019-03-19T22:55:49.803Z,19.17
2019-03-19T22:58:38.214Z,15.63
2019-03-19T23:01:26.158Z,14.77
2019-03-19T23:04:14.016Z,23.13
2019-03-19T23:07:02.043Z,23.03
2019-03-19T23:09:50.836Z,18.00
2019-03-19T23:12:39.541Z,16.47
2019-03-19T23:15:27.488Z,18.50
2019-03-19T23:18:16.542Z,14.47
2019-03-19T23:21:04.691Z,16.87
2019-03-19T23:23:52.840Z,14.80
2019-03-19T23:26:41.030Z,18.10
2019-03-19T23:29:29.223Z,18.30
2019-03-19T23:32:17.443Z,20.67
2019-03-19T23:35:05.868Z,20.13
2019-03-19T23:37:53.935Z,16.97
2019-03-19T23:40:42.167Z,17.70
2019-03-19T23:43:30.204Z,19.90
2019-03-19T23:46:18.337Z,24.27
2019-03-19T23:49:06.606Z,19.33
2019-03-19T23:51:54.815Z,24.57
2019-03-19T23:54:42.271Z,21.23
2019-03-19T23:57:30.359Z,19.23
